Time,TemperatureF,DewpointF,PressureIn,WindDirection,WindDirectionDegrees,WindSpeedMPH,WindSpeedGustMPH,Humidity,HourlyPrecipIn,Conditions,Clouds,dailyrainin,SoftwareType,DateUTC
2013-05-13 00:01:00,31.0,25.0,-100.00,West,260,2.0,3.0,75,0.00,,,-99.99,,2013-05-13 06:01:00,
2013-05-13 00:11:00,31.0,25.0,-100.00,West,265,0.0,2.0,75,0.00,,,-99.99,,2013-05-13 06:11:00,
2013-05-13 00:21:00,31.0,25.0,-100.00,West,265,1.0,1.0,76,0.00,,,-99.99,,2013-05-13 06:21:00,
2013-05-13 00:31:00,31.0,25.0,-100.00,West,270,0.0,1.0,77,0.00,,,-99.99,,2013-05-13 06:31:00,
2013-05-13 00:42:00,31.0,25.0,-100.00,West,275,2.0,2.0,78,0.00,,,-99.99,,2013-05-13 06:42:00,
2013-05-13 00:52:00,31.0,26.0,-100.00,West,280,1.0,2.0,79,0.00,,,-99.99,,2013-05-13 06:52:00,
2013-05-13 01:01:00,31.0,26.0,-100.00,West,280,0.0,1.0,79,0.00,,,-99.99,,2013-05-13 07:01:00,
2013-05-13 01:11:00,31.0,26.0,-100.00,West,280,1.0,2.0,80,0.00,,,-99.99,,2013-05-13 07:11:00,
2013-05-13 01:22:00,31.0,26.0,-100.00,WNW,285,0.0,1.0,81,0.00,,,-99.99,,2013-05-13 07:22:00,
2013-05-13 01:31:00,31.0,26.0,-100.00,WNW,285,0.0,1.0,81,0.00,,,-99.99,,2013-05-13 07:31:00,
2013-05-13 01:41:00,31.0,26.0,-100.00,WNW,290,0.0,2.0,82,0.00,,,-99.99,,2013-05-13 07:41:00,
2013-05-13 01:52:00,31.0,26.0,-100.00,WNW,290,0.0,0.0,82,0.00,,,-99.99,,2013-05-13 07:52:00,
2013-05-13 02:02:00,30.0,26.0,-100.00,WNW,290,0.0,1.0,82,0.00,,,-99.99,,2013-05-13 08:02:00,
2013-05-13 02:11:00,30.0,26.0,-100.00,WNW,290,0.0,0.0,83,0.00,,,-99.99,,2013-05-13 08:11:00,
2013-05-13 02:21:00,31.0,27.0,-100.00,WNW,295,1.0,2.0,84,0.00,,,-99.99,,2013-05-13 08:21:00,
2013-05-13 02:31:00,30.0,26.0,-100.00,WNW,295,4.0,6.0,84,0.00,,,-99.99,,2013-05-13 08:31:00,
2013-05-13 02:42:00,31.0,26.0,-100.00,WNW,295,1.0,4.0,84,0.00,,,-99.99,,2013-05-13 08:42:00,
2013-05-13 02:51:00,31.0,26.0,-100.00,WNW,295,2.0,3.0,83,0.00,,,-99.99,,2013-05-13 08:51:00,
2013-05-13 03:01:00,31.0,26.0,-100.00,WNW,295,1.0,1.0,83,0.00,,,-99.99,,2013-05-13 09:01:00,
2013-05-13 03:11:00,31.0,26.0,-100.00,WNW,295,0.0,1.0,83,0.00,,,-99.99,,2013-05-13 09:11:00,
2013-05-13 03:21:00,31.0,27.0,-100.00,WNW,295,1.0,2.0,83,0.00,,,-99.99,,2013-05-13 09:21:00,
2013-05-13 03:33:00,31.0,27.0,-100.00,WNW,295,1.0,2.0,83,0.00,,,-99.99,,2013-05-13 09:33:00,
2013-05-13 03:42:00,31.0,27.0,-100.00,WNW,295,0.0,1.0,83,0.00,,,-99.99,,2013-05-13 09:42:00,
2013-05-13 03:52:00,31.0,27.0,-100.00,WNW,295,0.0,0.0,83,0.00,,,-99.99,,2013-05-13 09:52:00,
2013-05-13 04:03:00,31.0,27.0,-100.00,WNW,295,0.0,0.0,83,0.00,,,-99.99,,2013-05-13 10:03:00,
2013-05-13 04:12:00,31.0,27.0,-100.00,WNW,295,0.0,0.0,83,0.00,,,-99.99,,2013-05-13 10:12:00,
2013-05-13 04:22:00,31.0,27.0,-100.00,WNW,295,0.0,1.0,83,0.00,,,-99.99,,2013-05-13 10:22:00,
2013-05-13 04:32:00,31.0,27.0,-100.00,WNW,295,0.0,1.0,83,0.00,,,-99.99,,2013-05-13 10:32:00,
2013-05-13 04:42:00,31.0,27.0,-100.00,WNW,295,0.0,1.0,83,0.00,,,-99.99,,2013-05-13 10:42:00,
2013-05-13 04:52:00,31.0,27.0,-100.00,WNW,295,0.0,0.0,83,0.00,,,-99.99,,2013-05-13 10:52:00,
2013-05-13 05:02:00,31.0,27.0,-100.00,WNW,295,1.0,1.0,83,0.00,,,-99.99,,2013-05-13 11:02:00,
2013-05-13 05:12:00,32.0,27.0,-100.00,WNW,295,1.0,2.0,83,0.00,,,-99.99,,2013-05-13 11:12:00,
2013-05-13 05:21:00,31.0,27.0,-100.00,WNW,295,2.0,3.0,83,0.00,,,-99.99,,2013-05-13 11:21:00,
2013-05-13 05:32:00,31.0,26.0,-100.00,WNW,295,2.0,3.0,83,0.00,,,-99.99,,2013-05-13 11:32:00,
2013-05-13 05:42:00,30.0,26.0,-100.00,WNW,295,1.0,2.0,83,0.00,,,-99.99,,2013-05-13 11:42:00,
2013-05-13 05:52:00,30.0,26.0,-100.00,WNW,295,1.0,2.0,84,0.00,,,-99.99,,2013-05-13 11:52:00,
2013-05-13 06:01:00,30.0,26.0,-100.00,WNW,300,1.0,2.0,84,0.00,,,-99.99,,2013-05-13 12:01:00,
2013-05-13 06:11:00,31.0,27.0,-100.00,WNW,300,1.0,1.0,84,0.00,,,-99.99,,2013-05-13 12:11:00,
2013-05-13 06:21:00,31.0,27.0,-100.00,WNW,300,1.0,2.0,84,0.00,,,-99.99,,2013-05-13 12:21:00,
2013-05-13 06:32:00,31.0,27.0,-100.00,WNW,300,0.0,2.0,84,0.00,,,-99.99,,2013-05-13 12:32:00,
2013-05-13 06:42:00,31.0,27.0,-100.00,WNW,300,4.0,7.0,85,0.00,,,-99.99,,2013-05-13 12:42:00,
2013-05-13 06:51:00,31.0,28.0,-100.00,WNW,300,1.0,4.0,85,0.00,,,-99.99,,2013-05-13 12:51:00,
2013-05-13 07:01:00,32.0,28.0,-100.00,WNW,300,1.0,2.0,85,0.00,,,-99.99,,2013-05-13 13:01:00,
2013-05-13 07:11:00,32.0,28.0,-100.00,WNW,300,1.0,2.0,84,0.00,,,-99.99,,2013-05-13 13:11:00,
2013-05-13 07:21:00,33.0,29.0,-100.00,WNW,295,0.0,2.0,84,0.00,,,-99.99,,2013-05-13 13:21:00,
2013-05-13 07:31:00,34.0,29.0,-100.00,WNW,290,0.0,1.0,83,0.00,,,-99.99,,2013-05-13 13:31:00,
2013-05-13 07:42:00,35.0,30.0,-100.00,WNW,285,1.0,1.0,80,0.00,,,-99.99,,2013-05-13 13:42:00,
2013-05-13 07:52:00,37.0,31.0,-100.00,West,275,0.0,1.0,78,0.00,,,-99.99,,2013-05-13 13:52:00,
2013-05-13 08:02:00,39.0,31.0,-100.00,WSW,255,0.0,0.0,72,0.00,,,-99.99,,2013-05-13 14:02:00,
2013-05-13 08:11:00,41.0,31.0,-100.00,SW,235,0.0,2.0,68,0.00,,,-99.99,,2013-05-13 14:11:00,
2013-05-13 08:22:00,42.0,31.0,-100.00,SW,225,0.0,2.0,65,0.00,,,-99.99,,2013-05-13 14:22:00,
2013-05-13 08:32:00,43.0,30.0,-100.00,SSW,205,2.0,3.0,60,0.00,,,-99.99,,2013-05-13 14:32:00,
2013-05-13 08:41:00,44.0,30.0,-100.00,South,190,1.0,3.0,56,0.00,,,-99.99,,2013-05-13 14:41:00,
2013-05-13 08:51:00,48.0,30.0,-100.00,SSE,160,0.0,1.0,50,0.00,,,-99.99,,2013-05-13 14:51:00,
2013-05-13 09:01:00,52.0,30.0,-100.00,SE,135,0.0,0.0,43,0.00,,,-99.99,,2013-05-13 15:01:00,
2013-05-13 09:11:00,52.0,28.0,-100.00,ESE,120,3.0,4.0,39,0.00,,,-99.99,,2013-05-13 15:11:00,
2013-05-13 09:21:00,52.0,27.0,-100.00,ESE,115,1.0,3.0,37,0.00,,,-99.99,,2013-05-13 15:21:00,
2013-05-13 09:31:00,54.0,26.0,-100.00,East,100,0.0,1.0,34,0.00,,,-99.99,,2013-05-13 15:31:00,
2013-05-13 09:42:00,54.0,27.0,-100.00,East,100,3.0,6.0,34,0.00,,,-99.99,,2013-05-13 15:42:00,
2013-05-13 09:53:00,55.0,26.0,-100.00,East,90,1.0,4.0,33,0.00,,,-99.99,,2013-05-13 15:53:00,
2013-05-13 10:03:00,55.0,26.0,-100.00,East,90,4.0,7.0,32,0.00,,,-99.99,,2013-05-13 16:03:00,
2013-05-13 10:11:00,56.0,27.0,-100.00,East,90,6.0,7.0,32,0.00,,,-99.99,,2013-05-13 16:11:00,
2013-05-13 10:21:00,55.0,26.0,-100.00,East,90,5.0,9.0,32,0.00,,,-99.99,,2013-05-13 16:21:00,
2013-05-13 10:33:00,55.0,26.0,-100.00,East,90,6.0,9.0,32,0.00,,,-99.99,,2013-05-13 16:33:00,
2013-05-13 10:42:00,56.0,27.0,-100.00,East,90,6.0,7.0,32,0.00,,,-99.99,,2013-05-13 16:42:00,
2013-05-13 10:52:00,56.0,28.0,-100.00,East,90,4.0,9.0,33,0.00,,,-99.99,,2013-05-13 16:52:00,
2013-05-13 11:02:00,57.0,27.0,-100.00,East,85,1.0,10.0,31,0.00,,,-99.99,,2013-05-13 17:02:00,
2013-05-13 11:12:00,57.0,27.0,-100.00,East,85,7.0,12.0,31,0.00,,,-99.99,,2013-05-13 17:12:00,
2013-05-13 11:21:00,57.0,27.0,-100.00,East,85,7.0,12.0,31,0.00,,,-99.99,,2013-05-13 17:21:00,
2013-05-13 11:32:00,57.0,27.0,-100.00,East,85,7.0,12.0,31,0.00,,,-99.99,,2013-05-13 17:32:00,
2013-05-13 11:42:00,57.0,27.0,-100.00,East,85,7.0,12.0,31,0.00,,,-99.99,,2013-05-13 17:42:00,